KCKN/CKN METAR and TAF weather

Enter ICAO airport designator
Station Type Date Time Source
KCKN METAR 2022/07/03 14:15 UTC NOAA

KCKN 031415Z AUTO 08009KT 10SM CLR 21/13 A3000 RMK AO2


Station Type Date Time Source
KCKN Decoded METAR 2022/07/03 14:15 UTC NOAA

Crookston Municipal Field, MN, United States (KCKN) 47-51N 096-37W
Jul 03, 2022 - 10:15 AM EDT / 2022.07.03 1415 UTC
Wind: from the E (080 degrees) at 10 MPH (9 KT):0
Visibility: 10 mile(s):0
Sky conditions: clear
Temperature: 69 F (21 C)
Dew Point: 55 F (13 C)
Relative Humidity: 60%
Pressure (altimeter): 30 in. Hg (1015 hPa)
ob: KCKN 031415Z AUTO 08009KT 10SM CLR 21/13 A3000 RMK AO2
cycle: 14

Station Type Date Time Source
KCKN TAF UTC NOAA

Error!

Example: see airport list